sensor_id;sensor_type;location;lat;lon;timestamp;P1;durP1;ratioP1;P2;durP2;ratioP2
42682;SDS011;28293;50.930;3.464;2023-06-26T00:00:15;11.38;;;5.05;;
42682;SDS011;28293;50.930;3.464;2023-06-26T00:02:41;9.07;;;4.78;;
42682;SDS011;28293;50.930;3.464;2023-06-26T00:05:07;10.82;;;4.75;;
42682;SDS011;28293;50.930;3.464;2023-06-26T00:07:33;11.10;;;5.43;;
42682;SDS011;28293;50.930;3.464;2023-06-26T00:10:04;10.32;;;4.85;;
42682;SDS011;28293;50.930;3.464;2023-06-26T00:12:30;8.98;;;4.60;;
42682;SDS011;28293;50.930;3.464;2023-06-26T00:14:56;10.98;;;5.32;;
42682;SDS011;28293;50.930;3.464;2023-06-26T00:17:22;11.35;;;4.93;;
42682;SDS011;28293;50.930;3.464;2023-06-26T00:19:50;9.40;;;4.63;;
42682;SDS011;28293;50.930;3.464;2023-06-26T00:22:17;10.90;;;4.82;;
42682;SDS011;28293;50.930;3.464;2023-06-26T00:24:43;9.25;;;4.75;;
42682;SDS011;28293;50.930;3.464;2023-06-26T00:27:12;12.13;;;5.07;;
42682;SDS011;28293;50.930;3.464;2023-06-26T00:29:38;10.35;;;4.93;;
42682;SDS011;28293;50.930;3.464;2023-06-26T00:32:04;10.57;;;5.32;;
42682;SDS011;28293;50.930;3.464;2023-06-26T00:34:29;9.70;;;5.18;;
42682;SDS011;28293;50.930;3.464;2023-06-26T00:36:55;12.52;;;5.15;;
42682;SDS011;28293;50.930;3.464;2023-06-26T00:39:21;10.68;;;4.97;;
42682;SDS011;28293;50.930;3.464;2023-06-26T00:41:47;11.95;;;5.35;;
42682;SDS011;28293;50.930;3.464;2023-06-26T00:44:13;12.63;;;5.53;;
42682;SDS011;28293;50.930;3.464;2023-06-26T00:46:39;10.68;;;4.97;;
42682;SDS011;28293;50.930;3.464;2023-06-26T00:49:04;13.48;;;5.85;;
42682;SDS011;28293;50.930;3.464;2023-06-26T00:51:30;14.98;;;4.78;;
42682;SDS011;28293;50.930;3.464;2023-06-26T00:53:56;16.08;;;5.15;;
42682;SDS011;28293;50.930;3.464;2023-06-26T00:56:23;11.52;;;5.53;;
42682;SDS011;28293;50.930;3.464;2023-06-26T00:58:49;12.27;;;5.70;;
42682;SDS011;28293;50.930;3.464;2023-06-26T01:01:14;12.43;;;5.20;;
42682;SDS011;28293;50.930;3.464;2023-06-26T01:03:43;13.02;;;5.50;;
42682;SDS011;28293;50.930;3.464;2023-06-26T01:06:11;11.13;;;5.10;;
42682;SDS011;28293;50.930;3.464;2023-06-26T01:08:38;11.77;;;5.10;;
42682;SDS011;28293;50.930;3.464;2023-06-26T01:11:06;13.68;;;5.57;;
42682;SDS011;28293;50.930;3.464;2023-06-26T01:13:32;14.15;;;5.53;;
42682;SDS011;28293;50.930;3.464;2023-06-26T01:15:59;14.15;;;5.97;;
42682;SDS011;28293;50.930;3.464;2023-06-26T01:18:26;14.48;;;6.13;;
42682;SDS011;28293;50.930;3.464;2023-06-26T01:20:52;11.23;;;5.60;;
42682;SDS011;28293;50.930;3.464;2023-06-26T01:26:29;13.85;;;6.13;;
42682;SDS011;28293;50.930;3.464;2023-06-26T01:29:00;14.45;;;6.47;;
42682;SDS011;28293;50.930;3.464;2023-06-26T01:31:27;13.68;;;6.78;;
42682;SDS011;28293;50.930;3.464;2023-06-26T01:33:55;16.42;;;7.07;;
42682;SDS011;28293;50.930;3.464;2023-06-26T01:36:24;15.68;;;7.32;;
42682;SDS011;28293;50.930;3.464;2023-06-26T01:38:49;17.05;;;7.50;;
42682;SDS011;28293;50.930;3.464;2023-06-26T01:41:16;16.48;;;7.15;;
42682;SDS011;28293;50.930;3.464;2023-06-26T01:57:24;16.58;;;7.65;;
42682;SDS011;28293;50.930;3.464;2023-06-26T01:59:53;17.30;;;6.85;;
42682;SDS011;28293;50.930;3.464;2023-06-26T02:02:20;18.35;;;7.25;;
42682;SDS011;28293;50.930;3.464;2023-06-26T02:04:49;16.55;;;7.15;;
42682;SDS011;28293;50.930;3.464;2023-06-26T02:07:14;18.80;;;7.20;;
42682;SDS011;28293;50.930;3.464;2023-06-26T02:09:40;18.80;;;8.25;;
42682;SDS011;28293;50.930;3.464;2023-06-26T02:12:06;15.23;;;7.15;;
42682;SDS011;28293;50.930;3.464;2023-06-26T02:14:32;18.30;;;7.75;;
42682;SDS011;28293;50.930;3.464;2023-06-26T02:16:58;20.02;;;7.32;;
42682;SDS011;28293;50.930;3.464;2023-06-26T02:19:25;19.00;;;7.38;;
42682;SDS011;28293;50.930;3.464;2023-06-26T02:21:52;17.23;;;7.45;;
42682;SDS011;28293;50.930;3.464;2023-06-26T02:24:18;17.42;;;7.57;;
42682;SDS011;28293;50.930;3.464;2023-06-26T02:26:44;17.88;;;7.68;;
42682;SDS011;28293;50.930;3.464;2023-06-26T02:29:10;19.48;;;6.78;;
42682;SDS011;28293;50.930;3.464;2023-06-26T02:31:37;18.65;;;7.15;;
42682;SDS011;28293;50.930;3.464;2023-06-26T02:34:03;19.15;;;7.35;;
42682;SDS011;28293;50.930;3.464;2023-06-26T02:36:29;17.10;;;7.15;;
42682;SDS011;28293;50.930;3.464;2023-06-26T02:38:55;17.70;;;7.18;;
42682;SDS011;28293;50.930;3.464;2023-06-26T02:41:20;22.05;;;7.45;;
42682;SDS011;28293;50.930;3.464;2023-06-26T02:43:46;14.52;;;6.38;;
42682;SDS011;28293;50.930;3.464;2023-06-26T02:46:11;20.60;;;7.45;;
42682;SDS011;28293;50.930;3.464;2023-06-26T02:48:37;20.73;;;6.90;;
42682;SDS011;28293;50.930;3.464;2023-06-26T02:51:03;16.88;;;6.82;;
42682;SDS011;28293;50.930;3.464;2023-06-26T02:53:28;19.58;;;6.70;;
42682;SDS011;28293;50.930;3.464;2023-06-26T02:55:56;21.00;;;7.38;;
42682;SDS011;28293;50.930;3.464;2023-06-26T02:58:21;18.83;;;7.25;;
42682;SDS011;28293;50.930;3.464;2023-06-26T03:00:47;15.35;;;6.60;;
42682;SDS011;28293;50.930;3.464;2023-06-26T03:03:13;20.15;;;7.13;;
42682;SDS011;28293;50.930;3.464;2023-06-26T03:05:39;18.00;;;7.20;;
42682;SDS011;28293;50.930;3.464;2023-06-26T03:08:04;19.58;;;6.95;;
42682;SDS011;28293;50.930;3.464;2023-06-26T03:10:30;20.25;;;6.88;;
42682;SDS011;28293;50.930;3.464;2023-06-26T03:12:56;15.95;;;6.75;;
42682;SDS011;28293;50.930;3.464;2023-06-26T03:15:21;17.65;;;6.90;;
42682;SDS011;28293;50.930;3.464;2023-06-26T03:17:47;17.25;;;6.68;;
42682;SDS011;28293;50.930;3.464;2023-06-26T03:20:14;19.58;;;6.68;;
42682;SDS011;28293;50.930;3.464;2023-06-26T03:22:40;18.33;;;6.55;;
42682;SDS011;28293;50.930;3.464;2023-06-26T03:25:06;14.75;;;6.20;;
42682;SDS011;28293;50.930;3.464;2023-06-26T03:27:32;18.77;;;6.15;;
42682;SDS011;28293;50.930;3.464;2023-06-26T03:29:57;17.58;;;6.25;;
42682;SDS011;28293;50.930;3.464;2023-06-26T03:32:23;15.77;;;6.47;;
42682;SDS011;28293;50.930;3.464;2023-06-26T03:34:48;15.65;;;5.75;;
42682;SDS011;28293;50.930;3.464;2023-06-26T03:37:14;18.98;;;6.25;;
42682;SDS011;28293;50.930;3.464;2023-06-26T03:39:40;15.30;;;5.95;;
42682;SDS011;28293;50.930;3.464;2023-06-26T03:42:06;15.15;;;7.32;;
42682;SDS011;28293;50.930;3.464;2023-06-26T03:44:31;17.33;;;6.10;;
42682;SDS011;28293;50.930;3.464;2023-06-26T03:46:57;18.08;;;5.50;;
42682;SDS011;28293;50.930;3.464;2023-06-26T03:49:23;17.40;;;5.75;;
42682;SDS011;28293;50.930;3.464;2023-06-26T03:51:48;17.02;;;5.43;;
42682;SDS011;28293;50.930;3.464;2023-06-26T03:54:14;16.80;;;5.90;;
42682;SDS011;28293;50.930;3.464;2023-06-26T03:56:40;13.82;;;5.50;;
42682;SDS011;28293;50.930;3.464;2023-06-26T03:59:05;15.45;;;5.72;;
42682;SDS011;28293;50.930;3.464;2023-06-26T04:01:31;14.50;;;5.47;;
42682;SDS011;28293;50.930;3.464;2023-06-26T04:03:57;15.30;;;5.82;;
42682;SDS011;28293;50.930;3.464;2023-06-26T04:06:23;13.18;;;4.82;;
42682;SDS011;28293;50.930;3.464;2023-06-26T04:08:48;14.45;;;4.78;;
42682;SDS011;28293;50.930;3.464;2023-06-26T04:11:14;14.25;;;4.82;;
42682;SDS011;28293;50.930;3.464;2023-06-26T04:13:40;14.48;;;4.85;;
42682;SDS011;28293;50.930;3.464;2023-06-26T04:16:05;15.23;;;5.93;;
42682;SDS011;28293;50.930;3.464;2023-06-26T04:18:31;17.50;;;4.60;;
42682;SDS011;28293;50.930;3.464;2023-06-26T04:21:30;13.48;;;4.20;;
42682;SDS011;28293;50.930;3.464;2023-06-26T04:23:50;11.15;;;4.10;;
42682;SDS011;28293;50.930;3.464;2023-06-26T04:26:16;10.98;;;4.30;;
42682;SDS011;28293;50.930;3.464;2023-06-26T04:28:42;9.55;;;3.65;;
42682;SDS011;28293;50.930;3.464;2023-06-26T04:31:08;11.18;;;3.88;;
42682;SDS011;28293;50.930;3.464;2023-06-26T04:33:34;12.57;;;3.90;;
42682;SDS011;28293;50.930;3.464;2023-06-26T04:36:01;14.50;;;3.70;;
42682;SDS011;28293;50.930;3.464;2023-06-26T04:38:33;16.25;;;4.53;;
42682;SDS011;28293;50.930;3.464;2023-06-26T04:40:59;10.30;;;3.22;;
42682;SDS011;28293;50.930;3.464;2023-06-26T04:43:25;11.77;;;3.67;;
42682;SDS011;28293;50.930;3.464;2023-06-26T04:45:51;11.65;;;3.60;;
42682;SDS011;28293;50.930;3.464;2023-06-26T04:48:17;9.85;;;2.92;;
42682;SDS011;28293;50.930;3.464;2023-06-26T04:50:42;9.70;;;3.42;;
42682;SDS011;28293;50.930;3.464;2023-06-26T04:53:08;11.07;;;3.05;;
42682;SDS011;28293;50.930;3.464;2023-06-26T04:55:34;10.88;;;3.78;;
42682;SDS011;28293;50.930;3.464;2023-06-26T04:58:00;9.80;;;3.70;;
42682;SDS011;28293;50.930;3.464;2023-06-26T05:00:26;12.00;;;4.00;;
42682;SDS011;28293;50.930;3.464;2023-06-26T05:02:51;11.95;;;4.65;;
42682;SDS011;28293;50.930;3.464;2023-06-26T05:05:26;11.02;;;4.47;;
42682;SDS011;28293;50.930;3.464;2023-06-26T05:07:53;11.82;;;3.75;;
42682;SDS011;28293;50.930;3.464;2023-06-26T05:10:19;11.50;;;3.38;;
42682;SDS011;28293;50.930;3.464;2023-06-26T05:12:45;9.10;;;3.28;;
42682;SDS011;28293;50.930;3.464;2023-06-26T05:15:10;11.65;;;2.55;;
42682;SDS011;28293;50.930;3.464;2023-06-26T05:17:36;10.43;;;2.53;;
42682;SDS011;28293;50.930;3.464;2023-06-26T05:20:02;14.32;;;3.45;;
42682;SDS011;28293;50.930;3.464;2023-06-26T05:22:28;10.75;;;2.35;;
42682;SDS011;28293;50.930;3.464;2023-06-26T05:24:54;9.23;;;2.63;;
42682;SDS011;28293;50.930;3.464;2023-06-26T05:27:24;10.77;;;2.42;;
42682;SDS011;28293;50.930;3.464;2023-06-26T05:29:50;13.18;;;3.08;;
42682;SDS011;28293;50.930;3.464;2023-06-26T05:32:16;10.13;;;2.28;;
42682;SDS011;28293;50.930;3.464;2023-06-26T05:34:43;9.82;;;2.33;;
42682;SDS011;28293;50.930;3.464;2023-06-26T05:37:20;9.43;;;2.50;;
42682;SDS011;28293;50.930;3.464;2023-06-26T05:39:46;9.20;;;2.25;;
42682;SDS011;28293;50.930;3.464;2023-06-26T05:42:12;13.50;;;2.55;;
42682;SDS011;28293;50.930;3.464;2023-06-26T05:44:39;8.18;;;2.50;;
42682;SDS011;28293;50.930;3.464;2023-06-26T05:47:04;8.40;;;2.40;;
42682;SDS011;28293;50.930;3.464;2023-06-26T05:49:30;9.07;;;2.30;;
42682;SDS011;28293;50.930;3.464;2023-06-26T05:51:56;7.85;;;2.33;;
42682;SDS011;28293;50.930;3.464;2023-06-26T05:54:23;8.50;;;2.40;;
42682;SDS011;28293;50.930;3.464;2023-06-26T05:56:50;8.57;;;2.33;;
42682;SDS011;28293;50.930;3.464;2023-06-26T05:59:20;9.98;;;2.42;;
42682;SDS011;28293;50.930;3.464;2023-06-26T06:01:48;12.20;;;2.88;;
42682;SDS011;28293;50.930;3.464;2023-06-26T06:04:13;8.63;;;2.38;;
42682;SDS011;28293;50.930;3.464;2023-06-26T06:06:39;10.00;;;2.67;;
42682;SDS011;28293;50.930;3.464;2023-06-26T06:09:05;11.73;;;2.67;;
42682;SDS011;28293;50.930;3.464;2023-06-26T06:11:30;9.55;;;2.65;;
42682;SDS011;28293;50.930;3.464;2023-06-26T06:13:56;14.60;;;3.35;;
42682;SDS011;28293;50.930;3.464;2023-06-26T06:16:24;8.60;;;2.33;;
42682;SDS011;28293;50.930;3.464;2023-06-26T06:18:49;9.48;;;2.40;;
42682;SDS011;28293;50.930;3.464;2023-06-26T06:21:15;7.85;;;2.92;;
42682;SDS011;28293;50.930;3.464;2023-06-26T06:23:40;11.20;;;2.85;;
42682;SDS011;28293;50.930;3.464;2023-06-26T06:26:06;8.75;;;2.65;;
42682;SDS011;28293;50.930;3.464;2023-06-26T06:28:32;11.27;;;2.80;;
42682;SDS011;28293;50.930;3.464;2023-06-26T06:30:58;10.93;;;2.75;;
42682;SDS011;28293;50.930;3.464;2023-06-26T06:33:23;10.20;;;2.90;;
42682;SDS011;28293;50.930;3.464;2023-06-26T06:35:49;10.10;;;2.83;;
42682;SDS011;28293;50.930;3.464;2023-06-26T06:38:14;10.60;;;2.58;;
42682;SDS011;28293;50.930;3.464;2023-06-26T06:40:40;10.98;;;2.60;;
42682;SDS011;28293;50.930;3.464;2023-06-26T06:43:06;11.98;;;3.05;;
42682;SDS011;28293;50.930;3.464;2023-06-26T06:45:32;8.15;;;2.30;;
42682;SDS011;28293;50.930;3.464;2023-06-26T06:47:57;11.10;;;2.95;;
42682;SDS011;28293;50.930;3.464;2023-06-26T06:50:23;8.85;;;2.55;;
42682;SDS011;28293;50.930;3.464;2023-06-26T06:52:49;7.72;;;2.83;;
42682;SDS011;28293;50.930;3.464;2023-06-26T06:55:14;8.45;;;2.65;;
42682;SDS011;28293;50.930;3.464;2023-06-26T06:57:40;7.40;;;2.22;;
42682;SDS011;28293;50.930;3.464;2023-06-26T07:00:10;10.38;;;2.67;;
42682;SDS011;28293;50.930;3.464;2023-06-26T07:02:37;7.78;;;2.42;;
42682;SDS011;28293;50.930;3.464;2023-06-26T07:05:04;10.90;;;2.90;;
42682;SDS011;28293;50.930;3.464;2023-06-26T07:07:32;9.50;;;2.88;;
42682;SDS011;28293;50.930;3.464;2023-06-26T07:10:00;8.55;;;2.50;;
42682;SDS011;28293;50.930;3.464;2023-06-26T07:12:28;9.63;;;2.47;;
42682;SDS011;28293;50.930;3.464;2023-06-26T07:14:55;8.50;;;2.35;;
42682;SDS011;28293;50.930;3.464;2023-06-26T07:17:21;8.75;;;2.58;;
42682;SDS011;28293;50.930;3.464;2023-06-26T07:19:48;8.95;;;2.30;;
42682;SDS011;28293;50.930;3.464;2023-06-26T07:22:14;9.80;;;2.35;;
42682;SDS011;28293;50.930;3.464;2023-06-26T07:24:40;8.63;;;2.40;;
42682;SDS011;28293;50.930;3.464;2023-06-26T07:27:06;7.38;;;2.40;;
42682;SDS011;28293;50.930;3.464;2023-06-26T07:29:32;7.65;;;2.38;;
42682;SDS011;28293;50.930;3.464;2023-06-26T07:31:58;8.68;;;2.88;;
42682;SDS011;28293;50.930;3.464;2023-06-26T07:34:24;8.70;;;2.78;;
42682;SDS011;28293;50.930;3.464;2023-06-26T07:36:50;8.55;;;2.65;;
42682;SDS011;28293;50.930;3.464;2023-06-26T07:39:16;8.50;;;2.83;;
42682;SDS011;28293;50.930;3.464;2023-06-26T07:41:42;9.00;;;2.60;;
42682;SDS011;28293;50.930;3.464;2023-06-26T07:44:07;9.27;;;2.47;;
42682;SDS011;28293;50.930;3.464;2023-06-26T07:46:33;7.18;;;2.42;;
42682;SDS011;28293;50.930;3.464;2023-06-26T07:48:59;8.02;;;2.78;;
42682;SDS011;28293;50.930;3.464;2023-06-26T07:51:25;10.77;;;2.75;;
42682;SDS011;28293;50.930;3.464;2023-06-26T07:53:51;8.82;;;2.60;;
42682;SDS011;28293;50.930;3.464;2023-06-26T07:56:16;8.25;;;2.88;;
42682;SDS011;28293;50.930;3.464;2023-06-26T07:58:42;8.40;;;2.50;;
42682;SDS011;28293;50.930;3.464;2023-06-26T08:01:08;8.20;;;2.53;;
42682;SDS011;28293;50.930;3.464;2023-06-26T08:03:34;7.63;;;2.75;;
42682;SDS011;28293;50.930;3.464;2023-06-26T08:06:00;7.78;;;2.60;;
42682;SDS011;28293;50.930;3.464;2023-06-26T08:08:26;9.40;;;3.00;;
42682;SDS011;28293;50.930;3.464;2023-06-26T08:10:51;11.05;;;2.92;;
42682;SDS011;28293;50.930;3.464;2023-06-26T08:13:17;7.72;;;2.58;;
42682;SDS011;28293;50.930;3.464;2023-06-26T08:15:43;7.47;;;2.33;;
42682;SDS011;28293;50.930;3.464;2023-06-26T08:18:09;8.48;;;2.60;;
42682;SDS011;28293;50.930;3.464;2023-06-26T08:20:35;9.35;;;2.70;;
42682;SDS011;28293;50.930;3.464;2023-06-26T08:23:02;9.82;;;3.25;;
42682;SDS011;28293;50.930;3.464;2023-06-26T08:25:29;9.43;;;2.85;;
42682;SDS011;28293;50.930;3.464;2023-06-26T08:27:54;8.20;;;2.30;;
42682;SDS011;28293;50.930;3.464;2023-06-26T08:30:20;11.07;;;3.00;;
42682;SDS011;28293;50.930;3.464;2023-06-26T08:32:46;9.70;;;3.08;;
42682;SDS011;28293;50.930;3.464;2023-06-26T08:35:12;9.20;;;2.85;;
42682;SDS011;28293;50.930;3.464;2023-06-26T08:37:38;10.80;;;2.90;;
42682;SDS011;28293;50.930;3.464;2023-06-26T08:40:04;9.95;;;3.30;;
42682;SDS011;28293;50.930;3.464;2023-06-26T08:42:30;8.00;;;3.20;;
42682;SDS011;28293;50.930;3.464;2023-06-26T08:44:55;7.88;;;2.75;;
42682;SDS011;28293;50.930;3.464;2023-06-26T08:47:21;9.25;;;2.90;;
42682;SDS011;28293;50.930;3.464;2023-06-26T08:49:52;11.20;;;3.40;;
42682;SDS011;28293;50.930;3.464;2023-06-26T08:53:09;9.02;;;3.10;;
42682;SDS011;28293;50.930;3.464;2023-06-26T08:55:29;10.05;;;3.10;;
42682;SDS011;28293;50.930;3.464;2023-06-26T08:57:58;7.47;;;3.20;;
42682;SDS011;28293;50.930;3.464;2023-06-26T09:00:24;9.70;;;3.53;;
42682;SDS011;28293;50.930;3.464;2023-06-26T09:02:50;12.70;;;3.40;;
42682;SDS011;28293;50.930;3.464;2023-06-26T09:05:16;6.68;;;3.35;;
42682;SDS011;28293;50.930;3.464;2023-06-26T09:07:42;8.25;;;3.50;;
42682;SDS011;28293;50.930;3.464;2023-06-26T09:10:08;9.23;;;2.92;;
42682;SDS011;28293;50.930;3.464;2023-06-26T09:12:34;10.75;;;3.00;;
42682;SDS011;28293;50.930;3.464;2023-06-26T09:15:01;9.85;;;3.50;;
42682;SDS011;28293;50.930;3.464;2023-06-26T09:17:38;13.43;;;4.10;;
42682;SDS011;28293;50.930;3.464;2023-06-26T09:20:08;8.55;;;3.35;;
42682;SDS011;28293;50.930;3.464;2023-06-26T09:22:38;7.13;;;2.80;;
42682;SDS011;28293;50.930;3.464;2023-06-26T09:25:05;7.93;;;2.70;;
42682;SDS011;28293;50.930;3.464;2023-06-26T09:27:32;6.55;;;2.88;;
42682;SDS011;28293;50.930;3.464;2023-06-26T09:29:59;10.57;;;2.80;;
42682;SDS011;28293;50.930;3.464;2023-06-26T09:32:24;11.30;;;3.00;;
42682;SDS011;28293;50.930;3.464;2023-06-26T09:34:52;8.55;;;2.85;;
42682;SDS011;28293;50.930;3.464;2023-06-26T09:37:19;6.50;;;2.50;;
42682;SDS011;28293;50.930;3.464;2023-06-26T09:39:45;6.53;;;2.60;;
42682;SDS011;28293;50.930;3.464;2023-06-26T09:42:13;8.68;;;2.72;;
42682;SDS011;28293;50.930;3.464;2023-06-26T09:44:43;7.75;;;2.80;;
42682;SDS011;28293;50.930;3.464;2023-06-26T09:47:13;7.75;;;2.47;;
42682;SDS011;28293;50.930;3.464;2023-06-26T09:49:42;7.65;;;2.40;;
42682;SDS011;28293;50.930;3.464;2023-06-26T09:52:08;6.68;;;2.53;;
42682;SDS011;28293;50.930;3.464;2023-06-26T09:54:34;7.38;;;2.20;;
42682;SDS011;28293;50.930;3.464;2023-06-26T09:57:07;7.40;;;2.13;;
42682;SDS011;28293;50.930;3.464;2023-06-26T09:59:43;8.32;;;2.33;;
42682;SDS011;28293;50.930;3.464;2023-06-26T10:02:10;8.98;;;2.58;;
42682;SDS011;28293;50.930;3.464;2023-06-26T10:04:36;9.18;;;2.42;;
42682;SDS011;28293;50.930;3.464;2023-06-26T10:07:06;6.82;;;2.13;;
42682;SDS011;28293;50.930;3.464;2023-06-26T10:09:40;7.53;;;2.00;;
42682;SDS011;28293;50.930;3.464;2023-06-26T10:12:23;6.95;;;2.10;;
42682;SDS011;28293;50.930;3.464;2023-06-26T10:14:55;7.32;;;2.30;;
42682;SDS011;28293;50.930;3.464;2023-06-26T10:17:22;6.93;;;2.17;;
42682;SDS011;28293;50.930;3.464;2023-06-26T10:19:52;4.97;;;1.95;;
42682;SDS011;28293;50.930;3.464;2023-06-26T10:22:21;6.25;;;2.08;;
42682;SDS011;28293;50.930;3.464;2023-06-26T10:24:52;6.80;;;2.03;;
42682;SDS011;28293;50.930;3.464;2023-06-26T10:27:24;4.90;;;1.95;;
42682;SDS011;28293;50.930;3.464;2023-06-26T10:29:57;7.22;;;2.28;;
42682;SDS011;28293;50.930;3.464;2023-06-26T10:32:27;8.05;;;2.10;;
42682;SDS011;28293;50.930;3.464;2023-06-26T10:34:54;8.30;;;1.90;;
42682;SDS011;28293;50.930;3.464;2023-06-26T10:37:20;9.18;;;2.15;;
42682;SDS011;28293;50.930;3.464;2023-06-26T10:40:05;6.63;;;2.20;;
42682;SDS011;28293;50.930;3.464;2023-06-26T10:42:35;7.82;;;2.20;;
42682;SDS011;28293;50.930;3.464;2023-06-26T10:45:15;6.85;;;2.10;;
42682;SDS011;28293;50.930;3.464;2023-06-26T10:47:43;5.78;;;1.90;;
42682;SDS011;28293;50.930;3.464;2023-06-26T10:50:19;4.72;;;1.85;;
42682;SDS011;28293;50.930;3.464;2023-06-26T10:53:22;5.05;;;1.80;;
42682;SDS011;28293;50.930;3.464;2023-06-26T10:55:49;5.10;;;2.08;;
42682;SDS011;28293;50.930;3.464;2023-06-26T10:58:27;4.45;;;1.58;;
42682;SDS011;28293;50.930;3.464;2023-06-26T11:01:21;7.07;;;1.90;;
42682;SDS011;28293;50.930;3.464;2023-06-26T11:06:26;7.13;;;2.00;;
42682;SDS011;28293;50.930;3.464;2023-06-26T11:08:53;5.50;;;2.00;;
42682;SDS011;28293;50.930;3.464;2023-06-26T11:11:54;4.40;;;1.60;;
42682;SDS011;28293;50.930;3.464;2023-06-26T11:14:17;7.10;;;1.88;;
42682;SDS011;28293;50.930;3.464;2023-06-26T11:16:44;5.80;;;1.58;;
42682;SDS011;28293;50.930;3.464;2023-06-26T11:19:10;4.65;;;1.90;;
42682;SDS011;28293;50.930;3.464;2023-06-26T11:21:39;5.35;;;1.95;;
42682;SDS011;28293;50.930;3.464;2023-06-26T11:24:08;6.50;;;1.95;;
42682;SDS011;28293;50.930;3.464;2023-06-26T11:26:37;5.63;;;1.80;;
42682;SDS011;28293;50.930;3.464;2023-06-26T11:29:04;8.63;;;2.00;;
42682;SDS011;28293;50.930;3.464;2023-06-26T11:31:30;6.15;;;1.70;;
42682;SDS011;28293;50.930;3.464;2023-06-26T11:33:58;5.53;;;1.75;;
42682;SDS011;28293;50.930;3.464;2023-06-26T11:36:26;6.93;;;2.28;;
42682;SDS011;28293;50.930;3.464;2023-06-26T11:38:55;5.97;;;1.75;;
42682;SDS011;28293;50.930;3.464;2023-06-26T11:41:26;3.65;;;1.45;;
42682;SDS011;28293;50.930;3.464;2023-06-26T11:43:54;11.95;;;1.90;;
42682;SDS011;28293;50.930;3.464;2023-06-26T11:46:20;4.50;;;1.48;;
42682;SDS011;28293;50.930;3.464;2023-06-26T11:48:47;9.68;;;2.33;;
42682;SDS011;28293;50.930;3.464;2023-06-26T11:51:13;5.45;;;2.05;;
42682;SDS011;28293;50.930;3.464;2023-06-26T11:53:42;5.95;;;1.65;;
42682;SDS011;28293;50.930;3.464;2023-06-26T11:56:10;6.30;;;1.80;;
42682;SDS011;28293;50.930;3.464;2023-06-26T11:58:36;8.73;;;2.10;;
42682;SDS011;28293;50.930;3.464;2023-06-26T12:01:21;11.20;;;2.30;;
42682;SDS011;28293;50.930;3.464;2023-06-26T12:03:48;6.40;;;2.08;;
42682;SDS011;28293;50.930;3.464;2023-06-26T12:06:14;7.13;;;1.88;;
42682;SDS011;28293;50.930;3.464;2023-06-26T12:08:40;7.03;;;2.00;;
42682;SDS011;28293;50.930;3.464;2023-06-26T12:11:07;4.88;;;1.58;;
42682;SDS011;28293;50.930;3.464;2023-06-26T12:13:33;4.72;;;1.52;;
42682;SDS011;28293;50.930;3.464;2023-06-26T12:15:59;4.85;;;1.80;;
42682;SDS011;28293;50.930;3.464;2023-06-26T12:18:25;8.63;;;2.75;;
42682;SDS011;28293;50.930;3.464;2023-06-26T12:20:51;8.80;;;2.50;;
42682;SDS011;28293;50.930;3.464;2023-06-26T12:23:17;7.35;;;2.05;;
42682;SDS011;28293;50.930;3.464;2023-06-26T12:25:45;8.20;;;2.00;;
42682;SDS011;28293;50.930;3.464;2023-06-26T12:28:18;8.52;;;2.40;;
42682;SDS011;28293;50.930;3.464;2023-06-26T12:30:47;8.15;;;2.20;;
42682;SDS011;28293;50.930;3.464;2023-06-26T12:33:45;7.38;;;2.05;;
42682;SDS011;28293;50.930;3.464;2023-06-26T12:36:14;5.05;;;2.00;;
42682;SDS011;28293;50.930;3.464;2023-06-26T12:38:41;6.25;;;1.95;;
42682;SDS011;28293;50.930;3.464;2023-06-26T12:41:13;7.45;;;2.20;;
42682;SDS011;28293;50.930;3.464;2023-06-26T12:43:42;5.18;;;1.88;;
42682;SDS011;28293;50.930;3.464;2023-06-26T12:46:08;7.35;;;2.08;;
42682;SDS011;28293;50.930;3.464;2023-06-26T12:48:41;7.78;;;2.38;;
42682;SDS011;28293;50.930;3.464;2023-06-26T12:51:17;6.50;;;2.30;;
42682;SDS011;28293;50.930;3.464;2023-06-26T12:53:43;5.07;;;2.25;;
42682;SDS011;28293;50.930;3.464;2023-06-26T12:56:09;8.32;;;2.53;;
42682;SDS011;28293;50.930;3.464;2023-06-26T12:58:36;8.82;;;2.40;;
42682;SDS011;28293;50.930;3.464;2023-06-26T13:01:06;7.45;;;2.58;;
42682;SDS011;28293;50.930;3.464;2023-06-26T13:03:38;6.50;;;2.28;;
42682;SDS011;28293;50.930;3.464;2023-06-26T13:06:05;6.75;;;2.33;;
42682;SDS011;28293;50.930;3.464;2023-06-26T13:08:30;6.93;;;2.30;;
42682;SDS011;28293;50.930;3.464;2023-06-26T13:10:56;6.40;;;2.50;;
42682;SDS011;28293;50.930;3.464;2023-06-26T13:13:22;7.85;;;2.22;;
42682;SDS011;28293;50.930;3.464;2023-06-26T13:15:47;10.05;;;2.88;;
42682;SDS011;28293;50.930;3.464;2023-06-26T13:18:13;6.32;;;2.00;;
42682;SDS011;28293;50.930;3.464;2023-06-26T13:20:38;8.30;;;2.45;;
42682;SDS011;28293;50.930;3.464;2023-06-26T13:23:04;8.00;;;2.78;;
42682;SDS011;28293;50.930;3.464;2023-06-26T13:25:30;7.60;;;2.38;;
42682;SDS011;28293;50.930;3.464;2023-06-26T13:27:56;7.05;;;2.40;;
42682;SDS011;28293;50.930;3.464;2023-06-26T13:30:21;8.13;;;2.60;;
42682;SDS011;28293;50.930;3.464;2023-06-26T13:32:47;7.15;;;2.47;;
42682;SDS011;28293;50.930;3.464;2023-06-26T13:35:13;9.80;;;2.50;;
42682;SDS011;28293;50.930;3.464;2023-06-26T13:37:38;8.68;;;2.45;;
42682;SDS011;28293;50.930;3.464;2023-06-26T13:40:05;8.88;;;2.45;;
42682;SDS011;28293;50.930;3.464;2023-06-26T13:42:32;7.40;;;2.03;;
42682;SDS011;28293;50.930;3.464;2023-06-26T13:44:58;6.45;;;1.92;;
42682;SDS011;28293;50.930;3.464;2023-06-26T13:47:24;5.57;;;1.95;;
42682;SDS011;28293;50.930;3.464;2023-06-26T13:49:49;7.05;;;1.70;;
42682;SDS011;28293;50.930;3.464;2023-06-26T13:52:15;4.03;;;1.85;;
42682;SDS011;28293;50.930;3.464;2023-06-26T13:54:41;4.55;;;1.90;;
42682;SDS011;28293;50.930;3.464;2023-06-26T13:57:07;6.88;;;1.65;;
42682;SDS011;28293;50.930;3.464;2023-06-26T13:59:33;6.55;;;1.70;;
42682;SDS011;28293;50.930;3.464;2023-06-26T14:01:59;5.82;;;2.08;;
42682;SDS011;28293;50.930;3.464;2023-06-26T14:04:25;4.25;;;1.67;;
42682;SDS011;28293;50.930;3.464;2023-06-26T14:06:52;8.15;;;1.92;;
42682;SDS011;28293;50.930;3.464;2023-06-26T14:09:17;4.78;;;1.50;;
42682;SDS011;28293;50.930;3.464;2023-06-26T14:11:44;6.50;;;1.85;;
42682;SDS011;28293;50.930;3.464;2023-06-26T14:14:10;5.78;;;1.63;;
42682;SDS011;28293;50.930;3.464;2023-06-26T14:16:35;4.65;;;1.60;;
42682;SDS011;28293;50.930;3.464;2023-06-26T14:19:01;3.08;;;1.42;;
42682;SDS011;28293;50.930;3.464;2023-06-26T14:21:27;4.78;;;1.50;;
42682;SDS011;28293;50.930;3.464;2023-06-26T14:23:53;6.38;;;1.73;;
42682;SDS011;28293;50.930;3.464;2023-06-26T14:26:22;5.90;;;1.55;;
42682;SDS011;28293;50.930;3.464;2023-06-26T14:28:47;5.93;;;1.73;;
42682;SDS011;28293;50.930;3.464;2023-06-26T14:31:13;5.68;;;1.42;;
42682;SDS011;28293;50.930;3.464;2023-06-26T14:33:39;3.75;;;1.35;;
42682;SDS011;28293;50.930;3.464;2023-06-26T14:36:05;3.17;;;1.40;;
42682;SDS011;28293;50.930;3.464;2023-06-26T14:38:30;4.32;;;1.50;;
42682;SDS011;28293;50.930;3.464;2023-06-26T14:40:56;4.75;;;1.65;;
42682;SDS011;28293;50.930;3.464;2023-06-26T14:43:21;6.68;;;1.67;;
42682;SDS011;28293;50.930;3.464;2023-06-26T14:45:47;5.18;;;1.60;;
42682;SDS011;28293;50.930;3.464;2023-06-26T14:48:13;5.28;;;1.60;;
42682;SDS011;28293;50.930;3.464;2023-06-26T14:50:39;4.63;;;1.60;;
42682;SDS011;28293;50.930;3.464;2023-06-26T14:53:05;4.43;;;1.73;;
42682;SDS011;28293;50.930;3.464;2023-06-26T14:55:31;4.95;;;1.45;;
42682;SDS011;28293;50.930;3.464;2023-06-26T14:57:57;6.65;;;1.90;;
42682;SDS011;28293;50.930;3.464;2023-06-26T15:00:22;8.07;;;1.85;;
42682;SDS011;28293;50.930;3.464;2023-06-26T15:02:49;6.43;;;1.63;;